sensor_id;sensor_type;location;lat;lon;timestamp;P1;durP1;ratioP1;P2;durP2;ratioP2
18738;SDS011;9498;51.862;19.460;2022-07-04T00:00:38;17.37;;;9.80;;
18738;SDS011;9498;51.862;19.460;2022-07-04T00:03:19;14.63;;;8.80;;
18738;SDS011;9498;51.862;19.460;2022-07-04T00:05:47;14.50;;;9.13;;
18738;SDS011;9498;51.862;19.460;2022-07-04T00:08:35;13.67;;;8.37;;
18738;SDS011;9498;51.862;19.460;2022-07-04T00:11:03;11.67;;;7.93;;
18738;SDS011;9498;51.862;19.460;2022-07-04T00:13:30;12.13;;;8.03;;
18738;SDS011;9498;51.862;19.460;2022-07-04T00:15:58;12.53;;;7.97;;
18738;SDS011;9498;51.862;19.460;2022-07-04T00:18:25;9.43;;;7.27;;
18738;SDS011;9498;51.862;19.460;2022-07-04T00:21:06;9.40;;;7.70;;
18738;SDS011;9498;51.862;19.460;2022-07-04T00:23:33;11.20;;;7.47;;
18738;SDS011;9498;51.862;19.460;2022-07-04T00:26:22;10.13;;;7.43;;
18738;SDS011;9498;51.862;19.460;2022-07-04T00:28:49;11.53;;;7.83;;
18738;SDS011;9498;51.862;19.460;2022-07-04T00:34:20;9.20;;;6.80;;
18738;SDS011;9498;51.862;19.460;2022-07-04T00:36:47;10.47;;;6.97;;
18738;SDS011;9498;51.862;19.460;2022-07-04T00:39:16;9.87;;;6.47;;
18738;SDS011;9498;51.862;19.460;2022-07-04T00:45:00;9.73;;;6.93;;
18738;SDS011;9498;51.862;19.460;2022-07-04T00:47:41;10.43;;;6.63;;
18738;SDS011;9498;51.862;19.460;2022-07-04T01:05:07;10.73;;;7.33;;
18738;SDS011;9498;51.862;19.460;2022-07-04T01:07:35;8.80;;;6.97;;
18738;SDS011;9498;51.862;19.460;2022-07-04T01:10:03;9.73;;;6.97;;
18738;SDS011;9498;51.862;19.460;2022-07-04T01:12:30;11.50;;;7.30;;
18738;SDS011;9498;51.862;19.460;2022-07-04T01:17:45;10.63;;;7.07;;
18738;SDS011;9498;51.862;19.460;2022-07-04T01:20:36;12.10;;;7.57;;
18738;SDS011;9498;51.862;19.460;2022-07-04T01:23:03;10.47;;;7.33;;
18738;SDS011;9498;51.862;19.460;2022-07-04T01:25:44;9.73;;;6.67;;
18738;SDS011;9498;51.862;19.460;2022-07-04T01:28:13;10.33;;;7.87;;
18738;SDS011;9498;51.862;19.460;2022-07-04T01:30:41;14.00;;;7.40;;
18738;SDS011;9498;51.862;19.460;2022-07-04T01:36:11;11.20;;;7.63;;
18738;SDS011;9498;51.862;19.460;2022-07-04T01:38:39;11.63;;;7.10;;
18738;SDS011;9498;51.862;19.460;2022-07-04T01:41:06;11.30;;;7.30;;
18738;SDS011;9498;51.862;19.460;2022-07-04T01:43:47;10.80;;;7.50;;
18738;SDS011;9498;51.862;19.460;2022-07-04T01:46:14;10.47;;;7.13;;
18738;SDS011;9498;51.862;19.460;2022-07-04T01:48:56;10.67;;;7.37;;
18738;SDS011;9498;51.862;19.460;2022-07-04T01:54:24;14.50;;;7.90;;
18738;SDS011;9498;51.862;19.460;2022-07-04T01:56:51;11.23;;;7.87;;
18738;SDS011;9498;51.862;19.460;2022-07-04T01:59:33;10.87;;;7.57;;
18738;SDS011;9498;51.862;19.460;2022-07-04T02:05:33;14.20;;;7.70;;
18738;SDS011;9498;51.862;19.460;2022-07-04T02:08:03;12.67;;;7.83;;
18738;SDS011;9498;51.862;19.460;2022-07-04T02:10:51;9.77;;;7.57;;
18738;SDS011;9498;51.862;19.460;2022-07-04T02:13:18;11.60;;;7.60;;
18738;SDS011;9498;51.862;19.460;2022-07-04T02:19:01;12.83;;;8.27;;
18738;SDS011;9498;51.862;19.460;2022-07-04T02:21:28;11.57;;;8.10;;
18738;SDS011;9498;51.862;19.460;2022-07-04T02:26:54;10.60;;;8.00;;
18738;SDS011;9498;51.862;19.460;2022-07-04T02:29:21;10.57;;;7.50;;
18738;SDS011;9498;51.862;19.460;2022-07-04T02:31:49;11.40;;;7.87;;
18738;SDS011;9498;51.862;19.460;2022-07-04T02:34:30;12.63;;;8.00;;
18738;SDS011;9498;51.862;19.460;2022-07-04T02:36:57;11.17;;;8.50;;
18738;SDS011;9498;51.862;19.460;2022-07-04T02:39:58;10.40;;;7.47;;
18738;SDS011;9498;51.862;19.460;2022-07-04T02:42:29;11.23;;;8.07;;
18738;SDS011;9498;51.862;19.460;2022-07-04T02:45:10;11.13;;;7.73;;
18738;SDS011;9498;51.862;19.460;2022-07-04T02:47:37;9.57;;;7.13;;
18738;SDS011;9498;51.862;19.460;2022-07-04T02:50:05;11.60;;;7.00;;
18738;SDS011;9498;51.862;19.460;2022-07-04T02:52:46;8.73;;;6.63;;
18738;SDS011;9498;51.862;19.460;2022-07-04T02:55:13;8.37;;;6.60;;
18738;SDS011;9498;51.862;19.460;2022-07-04T02:57:42;8.97;;;6.70;;
18738;SDS011;9498;51.862;19.460;2022-07-04T03:00:09;11.00;;;7.33;;
18738;SDS011;9498;51.862;19.460;2022-07-04T03:02:37;11.00;;;7.63;;
18738;SDS011;9498;51.862;19.460;2022-07-04T03:05:04;10.33;;;7.27;;
18738;SDS011;9498;51.862;19.460;2022-07-04T03:07:32;8.37;;;6.50;;
18738;SDS011;9498;51.862;19.460;2022-07-04T03:10:00;11.73;;;7.80;;
18738;SDS011;9498;51.862;19.460;2022-07-04T03:12:27;10.77;;;7.90;;
18738;SDS011;9498;51.862;19.460;2022-07-04T03:14:56;11.50;;;7.60;;
18738;SDS011;9498;51.862;19.460;2022-07-04T03:17:24;12.03;;;8.00;;
18738;SDS011;9498;51.862;19.460;2022-07-04T03:20:05;11.57;;;8.33;;
18738;SDS011;9498;51.862;19.460;2022-07-04T03:22:33;10.80;;;7.93;;
18738;SDS011;9498;51.862;19.460;2022-07-04T03:25:00;10.40;;;7.70;;
18738;SDS011;9498;51.862;19.460;2022-07-04T03:30:11;14.20;;;8.20;;
18738;SDS011;9498;51.862;19.460;2022-07-04T03:32:38;11.33;;;8.50;;
18738;SDS011;9498;51.862;19.460;2022-07-04T03:35:06;11.27;;;8.37;;
18738;SDS011;9498;51.862;19.460;2022-07-04T03:37:33;14.13;;;8.60;;
18738;SDS011;9498;51.862;19.460;2022-07-04T03:40:00;11.07;;;7.80;;
18738;SDS011;9498;51.862;19.460;2022-07-04T03:42:28;11.60;;;7.97;;
18738;SDS011;9498;51.862;19.460;2022-07-04T03:47:44;15.33;;;9.63;;
18738;SDS011;9498;51.862;19.460;2022-07-04T03:50:11;15.53;;;10.37;;
18738;SDS011;9498;51.862;19.460;2022-07-04T03:52:39;15.27;;;10.63;;
18738;SDS011;9498;51.862;19.460;2022-07-04T03:55:20;15.60;;;11.23;;
18738;SDS011;9498;51.862;19.460;2022-07-04T04:18:43;20.73;;;13.47;;
18738;SDS011;9498;51.862;19.460;2022-07-04T04:21:10;20.87;;;14.00;;
18738;SDS011;9498;51.862;19.460;2022-07-04T04:23:39;18.30;;;12.53;;
18738;SDS011;9498;51.862;19.460;2022-07-04T04:26:20;19.17;;;13.83;;
18738;SDS011;9498;51.862;19.460;2022-07-04T04:28:47;18.50;;;13.63;;
18738;SDS011;9498;51.862;19.460;2022-07-04T04:31:14;24.83;;;14.43;;
18738;SDS011;9498;51.862;19.460;2022-07-04T04:34:02;19.40;;;13.53;;
18738;SDS011;9498;51.862;19.460;2022-07-04T04:36:29;21.60;;;14.03;;
18738;SDS011;9498;51.862;19.460;2022-07-04T04:39:17;20.73;;;14.07;;
18738;SDS011;9498;51.862;19.460;2022-07-04T04:41:45;21.30;;;14.20;;
18738;SDS011;9498;51.862;19.460;2022-07-04T04:47:20;21.57;;;13.53;;
18738;SDS011;9498;51.862;19.460;2022-07-04T04:49:48;19.30;;;13.40;;
18738;SDS011;9498;51.862;19.460;2022-07-04T04:55:20;21.90;;;13.47;;
18738;SDS011;9498;51.862;19.460;2022-07-04T04:57:47;21.40;;;12.80;;
18738;SDS011;9498;51.862;19.460;2022-07-04T05:18:55;8.33;;;6.37;;
18738;SDS011;9498;51.862;19.460;2022-07-04T05:21:23;10.30;;;6.30;;
18738;SDS011;9498;51.862;19.460;2022-07-04T05:23:51;9.27;;;5.90;;
18738;SDS011;9498;51.862;19.460;2022-07-04T05:26:32;8.73;;;5.67;;
18738;SDS011;9498;51.862;19.460;2022-07-04T05:28:59;9.93;;;5.97;;
18738;SDS011;9498;51.862;19.460;2022-07-04T05:31:27;7.40;;;4.63;;
18738;SDS011;9498;51.862;19.460;2022-07-04T05:33:55;7.27;;;4.90;;
18738;SDS011;9498;51.862;19.460;2022-07-04T05:36:23;7.00;;;4.57;;
18738;SDS011;9498;51.862;19.460;2022-07-04T05:39:04;7.57;;;4.93;;
18738;SDS011;9498;51.862;19.460;2022-07-04T05:41:31;7.67;;;4.67;;
18738;SDS011;9498;51.862;19.460;2022-07-04T05:43:59;13.00;;;4.93;;
18738;SDS011;9498;51.862;19.460;2022-07-04T05:46:26;7.10;;;4.30;;
18738;SDS011;9498;51.862;19.460;2022-07-04T05:48:53;5.90;;;4.20;;
18738;SDS011;9498;51.862;19.460;2022-07-04T05:51:22;7.50;;;4.20;;
18738;SDS011;9498;51.862;19.460;2022-07-04T05:54:03;7.80;;;4.33;;
18738;SDS011;9498;51.862;19.460;2022-07-04T05:56:30;4.80;;;3.80;;
18738;SDS011;9498;51.862;19.460;2022-07-04T05:58:57;6.80;;;3.93;;
18738;SDS011;9498;51.862;19.460;2022-07-04T06:01:24;6.47;;;3.87;;
18738;SDS011;9498;51.862;19.460;2022-07-04T06:06:35;9.47;;;4.00;;
18738;SDS011;9498;51.862;19.460;2022-07-04T06:09:02;6.93;;;3.80;;
18738;SDS011;9498;51.862;19.460;2022-07-04T06:11:44;5.47;;;3.80;;
18738;SDS011;9498;51.862;19.460;2022-07-04T06:16:53;8.57;;;3.63;;
18738;SDS011;9498;51.862;19.460;2022-07-04T06:19:20;7.07;;;4.00;;
18738;SDS011;9498;51.862;19.460;2022-07-04T06:21:49;9.20;;;4.40;;
18738;SDS011;9498;51.862;19.460;2022-07-04T06:24:30;6.53;;;3.90;;
18738;SDS011;9498;51.862;19.460;2022-07-04T06:26:57;8.23;;;4.30;;
18738;SDS011;9498;51.862;19.460;2022-07-04T06:29:24;5.63;;;4.17;;
18738;SDS011;9498;51.862;19.460;2022-07-04T06:31:51;6.60;;;4.00;;
18738;SDS011;9498;51.862;19.460;2022-07-04T06:34:19;6.30;;;4.47;;
18738;SDS011;9498;51.862;19.460;2022-07-04T06:39:52;6.00;;;4.40;;
18738;SDS011;9498;51.862;19.460;2022-07-04T06:42:19;8.33;;;4.13;;
18738;SDS011;9498;51.862;19.460;2022-07-04T06:44:46;7.00;;;4.27;;
18738;SDS011;9498;51.862;19.460;2022-07-04T06:47:27;7.27;;;4.30;;
18738;SDS011;9498;51.862;19.460;2022-07-04T06:49:55;7.83;;;4.60;;
18738;SDS011;9498;51.862;19.460;2022-07-04T06:52:24;8.80;;;4.70;;
18738;SDS011;9498;51.862;19.460;2022-07-04T06:54:51;11.77;;;5.03;;
18738;SDS011;9498;51.862;19.460;2022-07-04T06:57:20;7.83;;;4.80;;
18738;SDS011;9498;51.862;19.460;2022-07-04T06:59:47;6.93;;;4.83;;
18738;SDS011;9498;51.862;19.460;2022-07-04T07:02:55;9.40;;;5.03;;
18738;SDS011;9498;51.862;19.460;2022-07-04T07:05:23;8.15;;;5.00;;
18738;SDS011;9498;51.862;19.460;2022-07-04T07:13:39;7.50;;;5.40;;
18738;SDS011;9498;51.862;19.460;2022-07-04T07:16:20;7.00;;;5.10;;
18738;SDS011;9498;51.862;19.460;2022-07-04T07:19:01;8.13;;;5.53;;
18738;SDS011;9498;51.862;19.460;2022-07-04T07:21:28;9.30;;;5.43;;
18738;SDS011;9498;51.862;19.460;2022-07-04T07:24:09;9.07;;;4.80;;
18738;SDS011;9498;51.862;19.460;2022-07-04T07:26:50;12.63;;;5.70;;
18738;SDS011;9498;51.862;19.460;2022-07-04T07:29:33;11.43;;;5.67;;
18738;SDS011;9498;51.862;19.460;2022-07-04T07:32:00;8.60;;;5.27;;
18738;SDS011;9498;51.862;19.460;2022-07-04T07:34:41;11.13;;;5.70;;
18738;SDS011;9498;51.862;19.460;2022-07-04T07:37:09;7.47;;;5.90;;
18738;SDS011;9498;51.862;19.460;2022-07-04T07:39:36;7.87;;;5.80;;
18738;SDS011;9498;51.862;19.460;2022-07-04T07:42:04;9.33;;;5.50;;
18738;SDS011;9498;51.862;19.460;2022-07-04T07:47:29;8.70;;;5.80;;
18738;SDS011;9498;51.862;19.460;2022-07-04T07:49:56;9.23;;;5.50;;
18738;SDS011;9498;51.862;19.460;2022-07-04T07:52:24;9.47;;;6.00;;
18738;SDS011;9498;51.862;19.460;2022-07-04T07:57:47;10.67;;;6.20;;
18738;SDS011;9498;51.862;19.460;2022-07-04T08:00:15;7.50;;;5.10;;
18738;SDS011;9498;51.862;19.460;2022-07-04T08:02:43;6.57;;;4.90;;
18738;SDS011;9498;51.862;19.460;2022-07-04T08:05:28;16.07;;;5.17;;
18738;SDS011;9498;51.862;19.460;2022-07-04T08:07:55;5.00;;;4.50;;
18738;SDS011;9498;51.862;19.460;2022-07-04T08:10:24;5.50;;;4.60;;
18738;SDS011;9498;51.862;19.460;2022-07-04T08:12:51;7.30;;;4.30;;
18738;SDS011;9498;51.862;19.460;2022-07-04T08:15:21;6.77;;;4.37;;
18738;SDS011;9498;51.862;19.460;2022-07-04T08:18:03;7.90;;;3.53;;
18738;SDS011;9498;51.862;19.460;2022-07-04T08:20:31;4.40;;;3.30;;
18738;SDS011;9498;51.862;19.460;2022-07-04T08:22:58;4.73;;;3.40;;
18738;SDS011;9498;51.862;19.460;2022-07-04T08:25:25;5.43;;;4.23;;
18738;SDS011;9498;51.862;19.460;2022-07-04T08:27:52;5.07;;;4.07;;
18738;SDS011;9498;51.862;19.460;2022-07-04T08:30:19;4.93;;;4.30;;
18738;SDS011;9498;51.862;19.460;2022-07-04T08:32:47;7.83;;;4.60;;
18738;SDS011;9498;51.862;19.460;2022-07-04T08:35:15;7.10;;;4.47;;
18738;SDS011;9498;51.862;19.460;2022-07-04T08:40:25;6.38;;;5.05;;
18738;SDS011;9498;51.862;19.460;2022-07-04T08:42:53;6.90;;;4.80;;
18738;SDS011;9498;51.862;19.460;2022-07-04T08:45:22;7.77;;;4.80;;
18738;SDS011;9498;51.862;19.460;2022-07-04T08:47:52;7.67;;;5.27;;
18738;SDS011;9498;51.862;19.460;2022-07-04T08:53:33;9.33;;;5.00;;
18738;SDS011;9498;51.862;19.460;2022-07-04T08:59:08;7.07;;;4.97;;
18738;SDS011;9498;51.862;19.460;2022-07-04T09:01:49;5.90;;;4.30;;
18738;SDS011;9498;51.862;19.460;2022-07-04T09:06:58;6.63;;;4.60;;
18738;SDS011;9498;51.862;19.460;2022-07-04T09:09:47;6.60;;;4.60;;
18738;SDS011;9498;51.862;19.460;2022-07-04T09:12:15;8.75;;;4.60;;
18738;SDS011;9498;51.862;19.460;2022-07-04T09:14:56;6.80;;;4.63;;
18738;SDS011;9498;51.862;19.460;2022-07-04T09:29:07;7.80;;;4.60;;
18738;SDS011;9498;51.862;19.460;2022-07-04T09:31:34;7.60;;;4.20;;
18738;SDS011;9498;51.862;19.460;2022-07-04T09:34:01;7.13;;;5.40;;
18738;SDS011;9498;51.862;19.460;2022-07-04T09:36:43;7.60;;;4.90;;
18738;SDS011;9498;51.862;19.460;2022-07-04T09:46:50;7.67;;;4.30;;
18738;SDS011;9498;51.862;19.460;2022-07-04T09:49:18;6.10;;;4.10;;
18738;SDS011;9498;51.862;19.460;2022-07-04T09:51:46;6.20;;;4.53;;
18738;SDS011;9498;51.862;19.460;2022-07-04T09:54:14;5.50;;;4.33;;
18738;SDS011;9498;51.862;19.460;2022-07-04T09:57:02;7.43;;;4.40;;
18738;SDS011;9498;51.862;19.460;2022-07-04T09:59:30;5.17;;;4.30;;
18738;SDS011;9498;51.862;19.460;2022-07-04T10:02:09;6.33;;;4.73;;
18738;SDS011;9498;51.862;19.460;2022-07-04T10:04:41;7.10;;;4.83;;
18738;SDS011;9498;51.862;19.460;2022-07-04T10:10:20;7.00;;;4.63;;
18738;SDS011;9498;51.862;19.460;2022-07-04T10:12:48;6.17;;;4.60;;
18738;SDS011;9498;51.862;19.460;2022-07-04T10:15:16;8.10;;;5.03;;
18738;SDS011;9498;51.862;19.460;2022-07-04T10:17:44;7.17;;;4.57;;
18738;SDS011;9498;51.862;19.460;2022-07-04T10:22:54;5.87;;;4.80;;
18738;SDS011;9498;51.862;19.460;2022-07-04T10:25:21;8.40;;;4.50;;
18738;SDS011;9498;51.862;19.460;2022-07-04T10:27:48;10.17;;;4.67;;
18738;SDS011;9498;51.862;19.460;2022-07-04T10:30:30;5.73;;;4.43;;
18738;SDS011;9498;51.862;19.460;2022-07-04T10:33:00;6.97;;;4.63;;
18738;SDS011;9498;51.862;19.460;2022-07-04T10:38:16;7.95;;;4.30;;
18738;SDS011;9498;51.862;19.460;2022-07-04T10:40:44;6.47;;;4.40;;
18738;SDS011;9498;51.862;19.460;2022-07-04T10:46:32;8.93;;;4.63;;
18738;SDS011;9498;51.862;19.460;2022-07-04T10:49:02;7.77;;;4.30;;
18738;SDS011;9498;51.862;19.460;2022-07-04T10:51:37;7.00;;;4.10;;
18738;SDS011;9498;51.862;19.460;2022-07-04T10:54:19;6.87;;;4.00;;
18738;SDS011;9498;51.862;19.460;2022-07-04T10:56:47;4.73;;;3.77;;
18738;SDS011;9498;51.862;19.460;2022-07-04T10:59:19;4.85;;;3.97;;
18738;SDS011;9498;51.862;19.460;2022-07-04T11:01:47;7.10;;;4.47;;
18738;SDS011;9498;51.862;19.460;2022-07-04T11:04:46;9.50;;;3.97;;
18738;SDS011;9498;51.862;19.460;2022-07-04T11:10:36;7.63;;;4.60;;
18738;SDS011;9498;51.862;19.460;2022-07-04T11:16:01;9.13;;;4.53;;
18738;SDS011;9498;51.862;19.460;2022-07-04T11:18:43;8.00;;;4.10;;
18738;SDS011;9498;51.862;19.460;2022-07-04T11:21:18;7.83;;;4.20;;
18738;SDS011;9498;51.862;19.460;2022-07-04T11:23:52;6.37;;;4.10;;
18738;SDS011;9498;51.862;19.460;2022-07-04T11:26:20;6.13;;;3.90;;
18738;SDS011;9498;51.862;19.460;2022-07-04T11:31:56;7.57;;;4.40;;
18738;SDS011;9498;51.862;19.460;2022-07-04T11:34:23;6.68;;;4.40;;
18738;SDS011;9498;51.862;19.460;2022-07-04T11:37:06;6.93;;;4.30;;
18738;SDS011;9498;51.862;19.460;2022-07-04T11:39:33;8.17;;;4.23;;
18738;SDS011;9498;51.862;19.460;2022-07-04T11:42:00;8.67;;;4.33;;
18738;SDS011;9498;51.862;19.460;2022-07-04T11:45:05;4.57;;;3.70;;
18738;SDS011;9498;51.862;19.460;2022-07-04T11:50:20;9.07;;;4.50;;
18738;SDS011;9498;51.862;19.460;2022-07-04T11:55:31;5.77;;;4.37;;
18738;SDS011;9498;51.862;19.460;2022-07-04T11:58:12;6.63;;;4.17;;
18738;SDS011;9498;51.862;19.460;2022-07-04T12:00:53;5.97;;;4.10;;
18738;SDS011;9498;51.862;19.460;2022-07-04T12:03:20;7.03;;;4.40;;
18738;SDS011;9498;51.862;19.460;2022-07-04T12:05:59;7.67;;;4.70;;
18738;SDS011;9498;51.862;19.460;2022-07-04T12:08:27;7.57;;;4.10;;
18738;SDS011;9498;51.862;19.460;2022-07-04T12:13:37;6.93;;;3.83;;
18738;SDS011;9498;51.862;19.460;2022-07-04T12:16:04;8.57;;;5.03;;
18738;SDS011;9498;51.862;19.460;2022-07-04T12:18:51;6.67;;;4.20;;
18738;SDS011;9498;51.862;19.460;2022-07-04T12:21:39;6.87;;;4.23;;
18738;SDS011;9498;51.862;19.460;2022-07-04T12:24:27;7.53;;;4.50;;
18738;SDS011;9498;51.862;19.460;2022-07-04T12:27:16;7.60;;;4.40;;
18738;SDS011;9498;51.862;19.460;2022-07-04T12:29:47;9.37;;;4.90;;
18738;SDS011;9498;51.862;19.460;2022-07-04T12:32:14;7.47;;;4.20;;
18738;SDS011;9498;51.862;19.460;2022-07-04T12:34:41;5.40;;;4.27;;
18738;SDS011;9498;51.862;19.460;2022-07-04T12:37:09;7.57;;;4.23;;
18738;SDS011;9498;51.862;19.460;2022-07-04T12:39:39;7.63;;;4.33;;
18738;SDS011;9498;51.862;19.460;2022-07-04T12:42:07;4.70;;;3.40;;
18738;SDS011;9498;51.862;19.460;2022-07-04T12:44:34;8.73;;;4.27;;
18738;SDS011;9498;51.862;19.460;2022-07-04T12:47:02;5.77;;;4.17;;
18738;SDS011;9498;51.862;19.460;2022-07-04T12:49:30;9.27;;;4.20;;
18738;SDS011;9498;51.862;19.460;2022-07-04T12:52:09;4.83;;;4.13;;
18738;SDS011;9498;51.862;19.460;2022-07-04T12:54:36;6.50;;;4.17;;
18738;SDS011;9498;51.862;19.460;2022-07-04T12:57:26;6.73;;;4.13;;
18738;SDS011;9498;51.862;19.460;2022-07-04T12:59:53;6.57;;;4.00;;
18738;SDS011;9498;51.862;19.460;2022-07-04T13:02:20;6.53;;;3.90;;
18738;SDS011;9498;51.862;19.460;2022-07-04T13:05:08;7.57;;;4.30;;
18738;SDS011;9498;51.862;19.460;2022-07-04T13:07:36;7.93;;;3.97;;
18738;SDS011;9498;51.862;19.460;2022-07-04T13:10:03;4.90;;;3.70;;
18738;SDS011;9498;51.862;19.460;2022-07-04T13:12:46;4.87;;;3.77;;
18738;SDS011;9498;51.862;19.460;2022-07-04T13:15:34;5.63;;;3.70;;
18738;SDS011;9498;51.862;19.460;2022-07-04T13:18:01;6.10;;;3.80;;
18738;SDS011;9498;51.862;19.460;2022-07-04T13:20:49;7.87;;;3.73;;
18738;SDS011;9498;51.862;19.460;2022-07-04T13:23:30;8.00;;;4.07;;
18738;SDS011;9498;51.862;19.460;2022-07-04T13:25:57;4.30;;;3.90;;
18738;SDS011;9498;51.862;19.460;2022-07-04T13:28:40;5.20;;;3.77;;
18738;SDS011;9498;51.862;19.460;2022-07-04T13:31:07;3.73;;;3.37;;
18738;SDS011;9498;51.862;19.460;2022-07-04T13:44:05;6.87;;;4.07;;
18738;SDS011;9498;51.862;19.460;2022-07-04T13:46:33;6.43;;;3.87;;
18738;SDS011;9498;51.862;19.460;2022-07-04T13:49:01;5.87;;;3.80;;
18738;SDS011;9498;51.862;19.460;2022-07-04T13:51:29;5.37;;;3.80;;
18738;SDS011;9498;51.862;19.460;2022-07-04T13:53:56;5.27;;;4.10;;
18738;SDS011;9498;51.862;19.460;2022-07-04T13:56:23;8.83;;;4.00;;
18738;SDS011;9498;51.862;19.460;2022-07-04T13:59:12;7.73;;;4.00;;
18738;SDS011;9498;51.862;19.460;2022-07-04T14:01:39;5.03;;;4.10;;
18738;SDS011;9498;51.862;19.460;2022-07-04T14:04:06;15.40;;;4.17;;
18738;SDS011;9498;51.862;19.460;2022-07-04T14:06:34;5.80;;;4.10;;
18738;SDS011;9498;51.862;19.460;2022-07-04T14:09:01;5.13;;;3.90;;
18738;SDS011;9498;51.862;19.460;2022-07-04T14:11:28;4.67;;;3.87;;
18738;SDS011;9498;51.862;19.460;2022-07-04T14:14:18;5.47;;;3.77;;
18738;SDS011;9498;51.862;19.460;2022-07-04T14:17:00;5.27;;;4.33;;
18738;SDS011;9498;51.862;19.460;2022-07-04T14:19:27;4.77;;;4.03;;
18738;SDS011;9498;51.862;19.460;2022-07-04T14:21:54;7.80;;;3.93;;
18738;SDS011;9498;51.862;19.460;2022-07-04T14:24:21;9.53;;;4.20;;
18738;SDS011;9498;51.862;19.460;2022-07-04T14:26:50;5.20;;;4.40;;
18738;SDS011;9498;51.862;19.460;2022-07-04T14:29:19;5.47;;;4.30;;
18738;SDS011;9498;51.862;19.460;2022-07-04T14:31:46;18.83;;;5.23;;
18738;SDS011;9498;51.862;19.460;2022-07-04T14:34:16;7.10;;;4.53;;
18738;SDS011;9498;51.862;19.460;2022-07-04T14:37:24;10.60;;;5.13;;
18738;SDS011;9498;51.862;19.460;2022-07-04T14:39:53;7.97;;;5.00;;
18738;SDS011;9498;51.862;19.460;2022-07-04T14:42:20;12.97;;;5.03;;
18738;SDS011;9498;51.862;19.460;2022-07-04T14:44:49;8.90;;;5.23;;
18738;SDS011;9498;51.862;19.460;2022-07-04T14:47:16;11.47;;;6.23;;
18738;SDS011;9498;51.862;19.460;2022-07-04T14:49:43;8.07;;;5.40;;
18738;SDS011;9498;51.862;19.460;2022-07-04T14:52:11;10.10;;;6.13;;
18738;SDS011;9498;51.862;19.460;2022-07-04T14:54:41;8.70;;;5.70;;
18738;SDS011;9498;51.862;19.460;2022-07-04T14:57:08;13.33;;;6.53;;
18738;SDS011;9498;51.862;19.460;2022-07-04T14:59:35;38.10;;;8.33;;
18738;SDS011;9498;51.862;19.460;2022-07-04T15:02:04;19.83;;;7.60;;
18738;SDS011;9498;51.862;19.460;2022-07-04T15:04:31;20.97;;;8.17;;
18738;SDS011;9498;51.862;19.460;2022-07-04T15:09:40;16.70;;;8.70;;
18738;SDS011;9498;51.862;19.460;2022-07-04T15:12:08;14.13;;;8.77;;
18738;SDS011;9498;51.862;19.460;2022-07-04T15:14:35;16.20;;;9.23;;
18738;SDS011;9498;51.862;19.460;2022-07-04T15:17:04;14.27;;;9.30;;
18738;SDS011;9498;51.862;19.460;2022-07-04T15:19:31;17.23;;;10.43;;
18738;SDS011;9498;51.862;19.460;2022-07-04T15:22:18;17.40;;;10.80;;
18738;SDS011;9498;51.862;19.460;2022-07-04T15:25:03;17.53;;;11.13;;
18738;SDS011;9498;51.862;19.460;2022-07-04T15:30:18;16.97;;;10.50;;
18738;SDS011;9498;51.862;19.460;2022-07-04T15:32:47;16.27;;;10.87;;
18738;SDS011;9498;51.862;19.460;2022-07-04T15:35:14;16.40;;;10.80;;
18738;SDS011;9498;51.862;19.460;2022-07-04T15:37:41;15.50;;;10.53;;
18738;SDS011;9498;51.862;19.460;2022-07-04T15:40:09;14.83;;;10.50;;
18738;SDS011;9498;51.862;19.460;2022-07-04T15:43:10;17.37;;;9.47;;
18738;SDS011;9498;51.862;19.460;2022-07-04T15:45:37;14.73;;;10.40;;
18738;SDS011;9498;51.862;19.460;2022-07-04T15:48:06;16.90;;;11.13;;
18738;SDS011;9498;51.862;19.460;2022-07-04T15:50:33;15.43;;;10.47;;
18738;SDS011;9498;51.862;19.460;2022-07-04T15:53:14;18.57;;;10.73;;
18738;SDS011;9498;51.862;19.460;2022-07-04T15:55:42;17.70;;;11.73;;
18738;SDS011;9498;51.862;19.460;2022-07-04T15:58:09;15.83;;;11.20;;
18738;SDS011;9498;51.862;19.460;2022-07-04T16:00:36;17.43;;;10.60;;
18738;SDS011;9498;51.862;19.460;2022-07-04T16:03:04;19.37;;;11.80;;
18738;SDS011;9498;51.862;19.460;2022-07-04T16:05:47;19.73;;;11.37;;
18738;SDS011;9498;51.862;19.460;2022-07-04T16:08:14;13.17;;;10.23;;
18738;SDS011;9498;51.862;19.460;2022-07-04T16:10:55;13.23;;;9.97;;
18738;SDS011;9498;51.862;19.460;2022-07-04T16:16:10;18.63;;;10.93;;
18738;SDS011;9498;51.862;19.460;2022-07-04T16:18:37;16.47;;;11.03;;
18738;SDS011;9498;51.862;19.460;2022-07-04T16:21:06;17.23;;;10.60;;
18738;SDS011;9498;51.862;19.460;2022-07-04T16:23:33;20.07;;;10.47;;
18738;SDS011;9498;51.862;19.460;2022-07-04T16:26:21;16.33;;;9.80;;
18738;SDS011;9498;51.862;19.460;2022-07-04T16:28:48;16.60;;;10.40;;
18738;SDS011;9498;51.862;19.460;2022-07-04T16:31:16;15.93;;;10.10;;
18738;SDS011;9498;51.862;19.460;2022-07-04T16:33:57;12.43;;;9.27;;
18738;SDS011;9498;51.862;19.460;2022-07-04T16:46:24;12.00;;;9.70;;
18738;SDS011;9498;51.862;19.460;2022-07-04T16:48:52;12.83;;;9.50;;
18738;SDS011;9498;51.862;19.460;2022-07-04T16:51:19;13.70;;;9.50;;
18738;SDS011;9498;51.862;19.460;2022-07-04T16:54:00;14.67;;;9.60;;
18738;SDS011;9498;51.862;19.460;2022-07-04T16:56:48;13.37;;;8.40;;
18738;SDS011;9498;51.862;19.460;2022-07-04T16:59:16;13.67;;;9.63;;
18738;SDS011;9498;51.862;19.460;2022-07-04T17:02:00;18.93;;;10.23;;
18738;SDS011;9498;51.862;19.460;2022-07-04T17:04:27;15.47;;;8.83;;
18738;SDS011;9498;51.862;19.460;2022-07-04T17:30:18;13.27;;;9.40;;
18738;SDS011;9498;51.862;19.460;2022-07-04T17:32:59;12.27;;;8.87;;
18738;SDS011;9498;51.862;19.460;2022-07-04T17:35:26;12.77;;;8.80;;
18738;SDS011;9498;51.862;19.460;2022-07-04T17:38:14;10.90;;;8.80;;
18738;SDS011;9498;51.862;19.460;2022-07-04T17:46:39;14.77;;;10.40;;
18738;SDS011;9498;51.862;19.460;2022-07-04T17:49:07;14.10;;;9.87;;
18738;SDS011;9498;51.862;19.460;2022-07-04T17:51:49;12.47;;;10.17;;
18738;SDS011;9498;51.862;19.460;2022-07-04T17:54:16;14.60;;;11.13;;
18738;SDS011;9498;51.862;19.460;2022-07-04T18:02:06;13.30;;;10.53;;
18738;SDS011;9498;51.862;19.460;2022-07-04T18:04:33;15.00;;;10.67;;
18738;SDS011;9498;51.862;19.460;2022-07-04T18:09:42;13.73;;;10.13;;
18738;SDS011;9498;51.862;19.460;2022-07-04T18:12:10;13.87;;;10.70;;
18738;SDS011;9498;51.862;19.460;2022-07-04T18:14:37;13.47;;;10.60;;
18738;SDS011;9498;51.862;19.460;2022-07-04T18:17:06;14.40;;;10.70;;
18738;SDS011;9498;51.862;19.460;2022-07-04T18:22:41;19.23;;;11.30;;
18738;SDS011;9498;51.862;19.460;2022-07-04T18:28:04;17.93;;;11.80;;
18738;SDS011;9498;51.862;19.460;2022-07-04T18:41:52;14.37;;;11.00;;
18738;SDS011;9498;51.862;19.460;2022-07-04T18:44:37;13.53;;;10.80;;
18738;SDS011;9498;51.862;19.460;2022-07-04T18:47:06;14.07;;;10.60;;
18738;SDS011;9498;51.862;19.460;2022-07-04T18:49:34;12.00;;;10.10;;
18738;SDS011;9498;51.862;19.460;2022-07-04T18:52:15;14.87;;;10.97;;
18738;SDS011;9498;51.862;19.460;2022-07-04T18:54:42;15.20;;;11.80;;
18738;SDS011;9498;51.862;19.460;2022-07-04T18:59:52;10.20;;;8.90;;
18738;SDS011;9498;51.862;19.460;2022-07-04T19:02:20;13.97;;;10.37;;
18738;SDS011;9498;51.862;19.460;2022-07-04T19:04:48;16.33;;;12.23;;
18738;SDS011;9498;51.862;19.460;2022-07-04T19:07:15;14.10;;;11.00;;
18738;SDS011;9498;51.862;19.460;2022-07-04T19:09:42;13.33;;;10.53;;
18738;SDS011;9498;51.862;19.460;2022-07-04T19:14:58;14.50;;;10.80;;
18738;SDS011;9498;51.862;19.460;2022-07-04T19:17:25;14.30;;;10.40;;
18738;SDS011;9498;51.862;19.460;2022-07-04T19:19:53;17.93;;;10.77;;
18738;SDS011;9498;51.862;19.460;2022-07-04T19:22:20;15.70;;;11.77;;
18738;SDS011;9498;51.862;19.460;2022-07-04T19:24:47;18.47;;;12.07;;